createdAt,value
2018-07-26T00:01:05.835Z,0
2018-07-26T00:02:21.768Z,0
2018-07-26T00:03:37.646Z,0
2018-07-26T00:04:53.547Z,0
2018-07-26T00:06:09.481Z,0
2018-07-26T00:07:25.344Z,0
2018-07-26T00:08:41.227Z,0
2018-07-26T00:09:57.115Z,0
2018-07-26T00:11:12.966Z,0
2018-07-26T00:12:28.847Z,0
2018-07-26T00:13:44.717Z,0
2018-07-26T00:15:00.613Z,0
2018-07-26T00:16:16.485Z,0
2018-07-26T00:17:32.366Z,0
2018-07-26T00:18:48.267Z,0
2018-07-26T00:20:04.143Z,0
2018-07-26T00:21:20.019Z,0
2018-07-26T00:22:35.917Z,0
2018-07-26T00:23:51.859Z,0
2018-07-26T00:25:07.731Z,0
2018-07-26T00:26:23.615Z,0
2018-07-26T00:27:39.514Z,0
2018-07-26T00:28:55.370Z,1
2018-07-26T00:30:11.252Z,1
2018-07-26T00:31:27.303Z,1
2018-07-26T00:32:43.176Z,1
2018-07-26T00:33:59.050Z,1
2018-07-26T00:35:14.936Z,1
2018-07-26T00:36:30.790Z,1
2018-07-26T00:37:46.746Z,1
2018-07-26T00:39:02.619Z,1
2018-07-26T00:40:18.510Z,1
2018-07-26T00:41:34.393Z,1
2018-07-26T00:42:50.273Z,1
2018-07-26T00:44:06.132Z,1
2018-07-26T00:45:22.027Z,0
2018-07-26T00:46:37.970Z,0
2018-07-26T00:47:53.835Z,0
2018-07-26T00:49:09.727Z,1
2018-07-26T00:50:26.663Z,0
2018-07-26T00:51:42.562Z,0
2018-07-26T00:52:58.459Z,0
2018-07-26T00:54:14.328Z,0
2018-07-26T00:55:30.324Z,0
2018-07-26T00:56:46.190Z,1
2018-07-26T00:58:02.116Z,0
2018-07-26T00:59:17.961Z,0
2018-07-26T01:00:33.845Z,0
2018-07-26T01:01:49.761Z,0
2018-07-26T01:03:05.655Z,0
2018-07-26T01:04:21.568Z,0
2018-07-26T01:05:37.433Z,0
2018-07-26T01:06:53.310Z,0
2018-07-26T01:08:09.181Z,0
2018-07-26T01:09:25.078Z,0
2018-07-26T01:10:40.960Z,0
2018-07-26T01:11:56.835Z,0
2018-07-26T01:13:12.730Z,0
2018-07-26T01:14:28.575Z,0
2018-07-26T01:15:44.428Z,0
2018-07-26T01:17:00.272Z,0
2018-07-26T01:18:16.160Z,0
2018-07-26T01:19:32.007Z,0
2018-07-26T01:20:47.864Z,0
2018-07-26T01:22:03.735Z,0
2018-07-26T01:23:19.612Z,0
2018-07-26T01:24:35.460Z,0
2018-07-26T01:25:51.326Z,0
2018-07-26T01:27:07.199Z,0
2018-07-26T01:28:23.083Z,0
2018-07-26T01:29:38.982Z,0
2018-07-26T01:30:54.843Z,0
2018-07-26T01:32:10.714Z,0
2018-07-26T01:33:26.636Z,0
2018-07-26T01:34:42.561Z,0
2018-07-26T01:35:58.434Z,0
2018-07-26T01:37:14.296Z,0
2018-07-26T01:38:30.187Z,0
2018-07-26T01:39:47.031Z,0
2018-07-26T01:41:02.897Z,0
2018-07-26T01:42:18.821Z,0
2018-07-26T01:43:34.717Z,0
2018-07-26T01:44:50.572Z,0
2018-07-26T01:46:06.418Z,0
2018-07-26T01:47:22.410Z,0
2018-07-26T01:48:38.312Z,0
2018-07-26T01:49:54.146Z,0
2018-07-26T01:51:10.013Z,0
2018-07-26T01:52:25.858Z,0
2018-07-26T01:53:41.722Z,0
2018-07-26T01:56:38.428Z,0
2018-07-26T01:57:54.285Z,0
2018-07-26T01:59:10.208Z,0
2018-07-26T02:00:26.073Z,0
2018-07-26T02:01:41.951Z,0
2018-07-26T02:02:57.885Z,0
2018-07-26T02:04:13.758Z,0
2018-07-26T02:05:29.660Z,0
2018-07-26T02:06:45.550Z,0
2018-07-26T02:08:01.394Z,0
2018-07-26T02:09:17.297Z,0
2018-07-26T02:10:33.177Z,0
2018-07-26T02:11:49.057Z,0
2018-07-26T02:13:04.931Z,0
2018-07-26T02:14:20.838Z,0
2018-07-26T02:15:36.736Z,0
2018-07-26T02:16:52.616Z,0
2018-07-26T02:18:08.499Z,0
2018-07-26T02:19:24.389Z,0
2018-07-26T02:20:40.286Z,0
2018-07-26T02:21:56.177Z,0
2018-07-26T02:23:12.029Z,0
2018-07-26T02:24:27.907Z,0
2018-07-26T02:25:43.771Z,0
2018-07-26T02:26:59.648Z,0
2018-07-26T02:28:15.569Z,0
2018-07-26T02:29:31.438Z,0
2018-07-26T02:30:47.338Z,0
2018-07-26T02:32:03.212Z,0
2018-07-26T02:33:19.053Z,0
2018-07-26T02:34:34.915Z,0
2018-07-26T02:35:50.824Z,0
2018-07-26T02:37:06.706Z,0
2018-07-26T02:38:22.578Z,0
2018-07-26T02:39:38.454Z,0
2018-07-26T02:40:54.342Z,0
2018-07-26T02:42:10.214Z,0
2018-07-26T02:43:26.072Z,0
2018-07-26T02:44:41.954Z,0
2018-07-26T02:45:57.812Z,0
2018-07-26T02:47:13.872Z,1
2018-07-26T02:48:29.741Z,0
2018-07-26T02:49:45.631Z,0
2018-07-26T02:51:01.487Z,0
2018-07-26T02:52:17.451Z,0
2018-07-26T02:53:33.331Z,0
2018-07-26T02:54:49.228Z,0
2018-07-26T02:56:05.107Z,0
2018-07-26T02:57:21.095Z,0
2018-07-26T02:58:37.038Z,0
2018-07-26T02:59:52.857Z,0
2018-07-26T03:01:08.734Z,0
2018-07-26T03:02:24.607Z,1
2018-07-26T03:03:40.522Z,1
2018-07-26T03:04:56.402Z,1
2018-07-26T03:06:12.266Z,1
2018-07-26T03:07:28.133Z,1
2018-07-26T03:08:44.051Z,1
2018-07-26T03:09:59.917Z,1
2018-07-26T03:11:15.827Z,0
2018-07-26T03:12:31.671Z,1
2018-07-26T03:13:47.607Z,1
2018-07-26T03:15:03.479Z,1
2018-07-26T03:16:19.364Z,1
2018-07-26T03:17:35.251Z,1
2018-07-26T03:18:51.190Z,1
2018-07-26T03:20:07.047Z,2
2018-07-26T03:21:22.922Z,2
2018-07-26T03:22:38.804Z,2
2018-07-26T03:23:54.712Z,3
2018-07-26T03:25:10.629Z,4
2018-07-26T03:26:26.524Z,4
2018-07-26T03:27:42.407Z,6
2018-07-26T03:28:58.301Z,7
2018-07-26T03:30:14.182Z,7
2018-07-26T03:31:30.064Z,8
2018-07-26T03:32:45.934Z,12
2018-07-26T03:34:01.830Z,14
2018-07-26T03:35:17.720Z,18
2018-07-26T03:36:33.579Z,21
2018-07-26T03:37:49.489Z,25
2018-07-26T03:39:05.411Z,31
2018-07-26T03:40:21.282Z,37
2018-07-26T03:41:37.143Z,44
2018-07-26T03:42:53.016Z,52
2018-07-26T03:44:08.932Z,62
2018-07-26T03:45:24.841Z,73
2018-07-26T03:46:40.714Z,84
2018-07-26T03:47:56.616Z,98
2018-07-26T03:49:12.527Z,113
2018-07-26T03:50:28.402Z,128
2018-07-26T03:51:44.295Z,145
2018-07-26T03:53:00.195Z,164
2018-07-26T03:54:16.178Z,183
2018-07-26T03:55:32.075Z,204
2018-07-26T03:56:47.953Z,226
2018-07-26T03:58:04.513Z,248
2018-07-26T03:59:20.490Z,272
2018-07-26T04:00:36.333Z,297
2018-07-26T04:01:52.220Z,322
2018-07-26T04:03:08.120Z,349
2018-07-26T04:04:24.045Z,375
2018-07-26T04:05:39.915Z,403
2018-07-26T04:06:55.777Z,432
2018-07-26T04:08:11.638Z,461
2018-07-26T04:09:27.533Z,490
2018-07-26T04:10:43.419Z,520
2018-07-26T04:11:59.279Z,550
2018-07-26T04:13:15.160Z,582
2018-07-26T04:14:31.072Z,612
2018-07-26T04:15:46.973Z,643
2018-07-26T04:17:02.850Z,674
2018-07-26T04:18:18.750Z,705
2018-07-26T04:19:34.683Z,737
2018-07-26T04:20:50.575Z,768
2018-07-26T04:22:06.473Z,800
2018-07-26T04:23:22.375Z,831
2018-07-26T04:24:38.368Z,862
2018-07-26T04:25:54.282Z,894
2018-07-26T04:27:10.204Z,923
2018-07-26T04:28:26.099Z,955
2018-07-26T04:29:42.037Z,984
2018-07-26T04:30:57.933Z,1016
2018-07-26T04:32:13.961Z,1045
2018-07-26T04:33:29.816Z,1076
2018-07-26T04:34:45.723Z,1104
2018-07-26T04:36:01.628Z,1135
2018-07-26T04:37:17.533Z,1169
2018-07-26T04:38:33.478Z,1193
2018-07-26T04:39:49.387Z,1221
2018-07-26T04:41:05.305Z,1250
2018-07-26T04:42:21.295Z,1278
2018-07-26T04:43:37.229Z,1305
2018-07-26T04:44:53.190Z,1333
2018-07-26T04:46:09.118Z,1358
2018-07-26T04:47:25.090Z,1384
2018-07-26T04:48:41.971Z,1410
2018-07-26T04:49:57.928Z,1439
2018-07-26T04:51:13.864Z,1463
2018-07-26T04:52:29.794Z,1488
2018-07-26T04:53:45.746Z,1512
2018-07-26T04:55:01.656Z,1544
2018-07-26T04:56:17.662Z,1557
2018-07-26T04:57:33.566Z,1579
2018-07-26T04:58:49.487Z,1598
2018-07-26T05:00:05.374Z,1619
2018-07-26T05:01:21.257Z,1643
2018-07-26T05:02:37.157Z,1665
2018-07-26T05:03:53.117Z,1683
2018-07-26T05:05:09.012Z,1706
2018-07-26T05:06:24.881Z,1725
2018-07-26T05:07:40.801Z,1748
2018-07-26T05:08:56.691Z,1756
2018-07-26T05:10:12.573Z,1771
2018-07-26T05:11:28.439Z,1786
2018-07-26T05:12:44.300Z,1806
2018-07-26T05:14:00.220Z,1822
2018-07-26T05:15:16.110Z,1844
2018-07-26T05:16:31.996Z,1855
2018-07-26T05:17:47.895Z,1871
2018-07-26T05:19:03.871Z,1890
2018-07-26T05:20:19.690Z,1902
2018-07-26T05:21:35.579Z,1920
2018-07-26T05:22:51.491Z,1934
2018-07-26T05:24:07.383Z,1946
2018-07-26T05:25:23.303Z,1958
2018-07-26T05:26:39.183Z,1972
2018-07-26T05:27:55.060Z,1987
2018-07-26T05:29:10.946Z,1996
2018-07-26T05:30:26.840Z,2007
2018-07-26T05:31:42.733Z,2019
2018-07-26T05:32:58.582Z,2029
2018-07-26T05:34:14.512Z,2047
2018-07-26T05:35:30.393Z,2060
2018-07-26T05:36:46.292Z,2071
2018-07-26T05:38:02.185Z,2083
2018-07-26T05:39:18.114Z,2099
2018-07-26T05:40:34.017Z,2109
2018-07-26T05:41:49.914Z,2122
2018-07-26T05:43:05.808Z,2132
2018-07-26T05:44:21.685Z,2133
2018-07-26T05:45:37.613Z,2161
2018-07-26T05:46:53.517Z,2178
2018-07-26T05:48:09.408Z,2183
2018-07-26T05:49:25.316Z,2196
2018-07-26T05:50:41.248Z,2204
2018-07-26T05:51:57.171Z,2217
2018-07-26T05:53:13.104Z,2226
2018-07-26T05:54:28.968Z,2236
2018-07-26T05:55:44.850Z,2247
2018-07-26T05:57:00.731Z,2276
2018-07-26T05:58:16.653Z,2297
2018-07-26T05:59:32.587Z,2315
2018-07-26T06:00:48.455Z,2293
2018-07-26T06:02:04.323Z,2304
2018-07-26T06:03:20.212Z,2317
2018-07-26T06:04:36.130Z,2328
2018-07-26T06:05:52.024Z,2341
2018-07-26T06:07:07.901Z,2307
2018-07-26T06:08:23.784Z,2369
2018-07-26T06:09:39.726Z,2382
2018-07-26T06:10:55.579Z,2397
2018-07-26T06:12:11.479Z,2411
2018-07-26T06:13:27.387Z,2416
2018-07-26T06:14:43.246Z,2433
2018-07-26T06:15:59.163Z,2446
2018-07-26T06:17:15.035Z,2494
2018-07-26T06:18:30.913Z,2466
2018-07-26T06:19:46.774Z,2476
2018-07-26T06:21:02.648Z,2489
2018-07-26T06:22:18.555Z,2673
2018-07-26T06:23:34.409Z,2520
2018-07-26T06:24:50.289Z,2534
2018-07-26T06:26:06.193Z,2563
2018-07-26T06:27:22.077Z,2571
2018-07-26T06:28:38.013Z,2584
2018-07-26T06:29:53.898Z,2599
2018-07-26T06:31:09.826Z,2618
2018-07-26T06:32:25.715Z,2635
2018-07-26T06:33:41.663Z,2647
2018-07-26T06:34:57.542Z,2666
2018-07-26T06:36:13.478Z,2690
2018-07-26T06:37:29.390Z,2708
2018-07-26T06:38:46.293Z,2723
2018-07-26T06:40:02.210Z,2732
2018-07-26T06:41:18.124Z,2741
2018-07-26T06:42:34.085Z,2750
2018-07-26T06:43:49.997Z,2767
2018-07-26T06:45:05.907Z,2780
2018-07-26T06:46:21.887Z,2806
2018-07-26T06:47:37.809Z,2817
2018-07-26T06:48:53.687Z,2827
2018-07-26T06:50:09.671Z,2838
2018-07-26T06:51:25.560Z,2857
2018-07-26T06:52:41.462Z,2887
2018-07-26T06:53:57.366Z,2869
2018-07-26T06:55:13.274Z,2884
2018-07-26T06:56:29.157Z,2906
2018-07-26T06:57:45.121Z,2922
2018-07-26T06:59:01.006Z,2940
2018-07-26T07:00:16.890Z,2954
2018-07-26T07:01:32.778Z,2970
2018-07-26T07:02:48.651Z,2993
2018-07-26T07:04:04.707Z,3003
2018-07-26T07:05:20.593Z,3038
2018-07-26T07:06:36.470Z,3077
2018-07-26T07:07:52.380Z,3108
2018-07-26T07:09:08.242Z,3141
2018-07-26T07:10:24.142Z,3188
2018-07-26T07:11:40.027Z,3245
2018-07-26T07:12:55.969Z,3303
2018-07-26T07:14:11.853Z,3364
2018-07-26T07:15:27.757Z,3408
2018-07-26T07:16:43.662Z,3431
2018-07-26T07:17:59.625Z,3467
2018-07-26T07:19:15.568Z,3507
2018-07-26T07:20:31.510Z,3518
2018-07-26T07:21:47.384Z,3534
2018-07-26T07:23:03.318Z,3537
2018-07-26T07:24:19.271Z,3532
2018-07-26T07:25:35.175Z,3569
2018-07-26T07:26:51.081Z,3571
2018-07-26T07:28:06.994Z,3575
2018-07-26T07:29:22.895Z,3584
2018-07-26T07:30:38.874Z,3592
2018-07-26T07:31:54.788Z,3602
2018-07-26T07:33:10.731Z,3601
2018-07-26T07:34:26.630Z,3642
2018-07-26T07:35:42.550Z,3638
2018-07-26T07:36:58.446Z,3651
2018-07-26T07:38:14.348Z,3680
2018-07-26T07:39:30.294Z,3681
2018-07-26T07:40:46.188Z,3715
2018-07-26T07:42:02.090Z,3721
2018-07-26T07:43:18.003Z,3752
2018-07-26T07:44:33.986Z,3751
2018-07-26T07:45:49.852Z,3789
2018-07-26T07:47:05.789Z,3799
2018-07-26T07:48:21.735Z,3820
2018-07-26T07:49:37.562Z,3834
2018-07-26T07:50:53.410Z,3883
2018-07-26T07:52:09.334Z,3845
2018-07-26T07:53:25.226Z,3882
2018-07-26T07:54:41.137Z,3900
2018-07-26T07:55:57.074Z,3897
2018-07-26T07:57:12.965Z,3921
2018-07-26T07:58:28.873Z,3931
2018-07-26T07:59:44.786Z,3928
2018-07-26T08:01:00.666Z,3959
2018-07-26T08:02:16.582Z,3969
2018-07-26T08:03:32.521Z,3973
2018-07-26T08:04:49.467Z,3980
2018-07-26T08:06:05.322Z,3988
2018-07-26T08:07:21.227Z,3998
2018-07-26T08:08:37.131Z,4018
2018-07-26T08:09:53.028Z,4023
2018-07-26T08:11:08.976Z,4034
2018-07-26T08:12:24.828Z,4028
2018-07-26T08:13:40.698Z,4065
2018-07-26T08:14:56.599Z,4093
2018-07-26T08:16:12.453Z,4086
2018-07-26T08:17:28.347Z,4093
2018-07-26T08:18:44.279Z,4098
2018-07-26T08:20:00.191Z,4110
2018-07-26T08:21:16.074Z,4111
2018-07-26T08:22:31.962Z,4145
2018-07-26T08:23:47.847Z,4132
2018-07-26T08:25:03.774Z,4128
2018-07-26T08:26:19.687Z,4172
2018-07-26T08:27:35.569Z,4150
2018-07-26T08:28:51.516Z,4154
2018-07-26T08:30:07.409Z,4160
2018-07-26T08:31:23.288Z,4174
2018-07-26T08:32:39.200Z,4170
2018-07-26T08:33:55.089Z,4187
2018-07-26T08:35:11.049Z,4197
2018-07-26T08:36:26.875Z,4206
2018-07-26T08:37:42.768Z,4229
2018-07-26T08:38:58.665Z,4204
2018-07-26T08:40:14.541Z,4236
2018-07-26T08:41:30.438Z,4248
2018-07-26T08:42:46.341Z,4266
2018-07-26T08:44:02.246Z,4256
2018-07-26T08:45:18.135Z,4283
2018-07-26T08:46:34.086Z,4290
2018-07-26T08:47:49.929Z,4287
2018-07-26T08:49:05.815Z,4303
2018-07-26T08:50:21.742Z,4296
2018-07-26T08:51:37.665Z,4330
2018-07-26T08:52:53.606Z,4323
2018-07-26T08:54:09.641Z,4333
2018-07-26T08:55:25.470Z,4338
2018-07-26T08:56:41.365Z,4355
2018-07-26T08:57:57.244Z,4356
2018-07-26T08:59:13.146Z,4392
2018-07-26T09:00:29.044Z,4389
2018-07-26T09:01:45.940Z,4381
2018-07-26T09:03:01.897Z,4409
2018-07-26T09:04:17.814Z,4417
2018-07-26T09:05:33.718Z,4422
2018-07-26T09:06:49.633Z,4443
2018-07-26T09:08:05.504Z,4417
2018-07-26T09:09:21.401Z,4465
2018-07-26T09:10:37.318Z,4455
2018-07-26T09:11:53.253Z,4468
2018-07-26T09:13:09.201Z,4461
2018-07-26T09:14:25.083Z,4510
2018-07-26T09:15:41.009Z,4521
2018-07-26T09:16:56.892Z,4466
2018-07-26T09:18:12.923Z,4520
2018-07-26T09:19:28.855Z,4533
2018-07-26T09:20:44.780Z,4555
2018-07-26T09:22:00.672Z,4530
2018-07-26T09:23:17.067Z,4568
2018-07-26T09:24:33.336Z,4538
2018-07-26T09:27:29.908Z,4543
2018-07-26T09:30:26.518Z,4616
2018-07-26T09:31:42.698Z,4654
2018-07-26T09:36:20.446Z,4634
2018-07-26T09:37:36.411Z,4671
2018-07-26T09:38:52.338Z,4679
2018-07-26T09:40:08.288Z,4661
2018-07-26T09:41:24.208Z,4715
2018-07-26T09:42:40.203Z,4724
2018-07-26T09:43:56.117Z,4700
2018-07-26T09:45:12.040Z,4677
2018-07-26T09:46:27.962Z,4699
2018-07-26T09:49:24.579Z,4701
2018-07-26T09:50:40.539Z,4734
2018-07-26T09:51:56.582Z,4779
2018-07-26T09:53:12.494Z,4785
2018-07-26T09:54:28.463Z,4753
2018-07-26T09:55:44.530Z,4724
2018-07-26T09:57:00.415Z,4739
2018-07-26T09:58:16.345Z,4761
2018-07-26T09:59:32.224Z,4781
2018-07-26T10:00:48.144Z,4879
2018-07-26T10:02:04.106Z,4991
2018-07-26T10:03:20.047Z,5013
2018-07-26T10:04:35.966Z,5078
2018-07-26T10:05:51.901Z,5137
2018-07-26T10:07:07.838Z,4547
2018-07-26T10:08:23.772Z,3948
2018-07-26T10:09:39.665Z,4894
2018-07-26T10:10:55.580Z,5160
2018-07-26T10:12:12.466Z,5461
2018-07-26T10:13:28.377Z,4418
2018-07-26T10:14:44.298Z,5349
2018-07-26T10:16:00.315Z,5609
2018-07-26T10:17:16.181Z,5693
2018-07-26T10:18:32.104Z,5714
2018-07-26T10:19:48.052Z,5648
2018-07-26T10:21:03.934Z,5653
2018-07-26T10:22:19.875Z,5676
2018-07-26T10:23:35.789Z,5631
2018-07-26T10:24:51.725Z,4360
2018-07-26T10:26:07.624Z,4358
2018-07-26T10:27:23.493Z,4659
2018-07-26T10:28:39.357Z,5999
2018-07-26T10:29:55.305Z,6327
2018-07-26T10:31:11.199Z,6254
2018-07-26T10:32:27.091Z,6072
2018-07-26T10:33:43.021Z,6061
2018-07-26T10:34:58.915Z,6025
2018-07-26T10:36:14.860Z,6041
2018-07-26T10:37:30.813Z,6079
2018-07-26T10:38:46.686Z,6066
2018-07-26T10:40:02.597Z,6118
2018-07-26T10:41:18.480Z,5195
2018-07-26T10:42:34.411Z,5180
2018-07-26T10:43:50.340Z,5926
2018-07-26T10:45:06.248Z,5955
2018-07-26T10:46:22.162Z,5922
2018-07-26T10:47:38.077Z,5955
2018-07-26T10:48:54.096Z,6007
2018-07-26T10:50:10.096Z,5912
2018-07-26T10:51:26.270Z,5863
2018-07-26T10:52:42.390Z,5865
2018-07-26T10:53:58.665Z,5905
2018-07-26T10:55:14.585Z,5833
2018-07-26T10:56:30.471Z,5828
2018-07-26T10:57:46.403Z,5723
2018-07-26T10:59:02.318Z,5696
2018-07-26T11:00:18.237Z,5828
2018-07-26T11:01:34.130Z,5997
2018-07-26T11:02:50.059Z,5986
2018-07-26T11:04:05.940Z,5859
2018-07-26T11:05:21.871Z,5805
2018-07-26T11:06:37.780Z,5921
2018-07-26T11:07:53.677Z,5997
2018-07-26T11:09:09.565Z,5990
2018-07-26T11:10:25.452Z,5933
2018-07-26T11:11:41.364Z,5834
2018-07-26T11:12:57.269Z,5740
2018-07-26T11:14:13.198Z,5707
2018-07-26T11:15:29.136Z,5733
2018-07-26T11:16:45.024Z,5839
2018-07-26T11:18:00.923Z,5988
2018-07-26T11:19:16.868Z,6093
2018-07-26T11:20:32.905Z,6134
2018-07-26T11:21:48.826Z,6140
2018-07-26T11:23:04.754Z,6107
2018-07-26T11:24:20.722Z,6059
2018-07-26T11:25:36.747Z,6112
2018-07-26T11:26:52.753Z,6403
2018-07-26T11:28:08.683Z,6540
2018-07-26T11:29:24.574Z,6495
2018-07-26T11:30:40.466Z,6759
2018-07-26T11:31:56.362Z,7076
2018-07-26T11:33:12.270Z,7180
2018-07-26T11:34:28.165Z,7083
2018-07-26T11:35:44.102Z,6998
2018-07-26T11:37:00.071Z,5923
2018-07-26T11:38:16.067Z,6491
2018-07-26T11:39:31.994Z,6342
2018-07-26T11:40:47.920Z,6061
2018-07-26T11:42:03.978Z,5973
2018-07-26T11:43:19.985Z,5912
2018-07-26T11:44:35.911Z,5994
2018-07-26T11:45:51.831Z,6106
2018-07-26T11:47:07.685Z,6108
2018-07-26T11:48:23.779Z,5966
2018-07-26T11:49:39.773Z,5703
2018-07-26T11:50:55.699Z,5050
2018-07-26T11:52:11.735Z,6289
2018-07-26T11:53:27.617Z,6332
2018-07-26T11:54:43.534Z,6046
2018-07-26T11:55:59.458Z,5124
2018-07-26T11:57:15.420Z,5553
2018-07-26T11:58:31.312Z,6312
2018-07-26T11:59:47.301Z,6705
2018-07-26T12:01:03.224Z,6635
2018-07-26T12:02:19.135Z,6649
2018-07-26T12:03:35.063Z,6651
2018-07-26T12:04:50.949Z,6439
2018-07-26T12:06:06.877Z,6681
2018-07-26T12:07:22.744Z,6975
2018-07-26T12:08:38.673Z,7145
2018-07-26T12:09:54.633Z,7013
2018-07-26T12:11:10.564Z,5721
2018-07-26T12:12:26.447Z,5338
2018-07-26T12:13:42.379Z,5232
2018-07-26T12:14:58.307Z,6051
2018-07-26T12:16:14.267Z,5791
2018-07-26T12:17:30.162Z,5966
2018-07-26T12:18:46.166Z,6472
2018-07-26T12:20:02.137Z,5748
2018-07-26T12:21:18.124Z,6836
2018-07-26T12:22:34.010Z,7160
2018-07-26T12:23:49.919Z,7309
2018-07-26T12:25:05.949Z,6914
2018-07-26T12:26:21.836Z,6597
2018-07-26T12:27:37.830Z,6986
2018-07-26T12:28:53.758Z,7020
2018-07-26T12:30:09.660Z,7086
2018-07-26T12:31:25.521Z,7141
2018-07-26T12:32:41.424Z,6957
2018-07-26T12:33:57.340Z,6581
2018-07-26T12:35:13.275Z,6374
2018-07-26T12:36:29.173Z,6346
2018-07-26T12:37:45.080Z,6361
2018-07-26T12:39:00.973Z,6350
2018-07-26T12:40:16.901Z,5839
2018-07-26T12:41:32.777Z,6546
2018-07-26T12:42:48.666Z,6604
2018-07-26T12:44:04.710Z,6409
2018-07-26T12:45:20.623Z,6597
2018-07-26T12:46:36.624Z,6793
2018-07-26T12:49:33.512Z,6155
2018-07-26T12:50:49.398Z,7708
2018-07-26T12:52:05.290Z,7069
2018-07-26T12:53:21.186Z,6341
2018-07-26T12:54:38.080Z,6302
2018-07-26T12:55:53.955Z,6717
2018-07-26T12:57:09.842Z,6804
2018-07-26T12:58:26.249Z,7193
2018-07-26T12:59:42.304Z,7202
2018-07-26T13:00:58.219Z,7206
2018-07-26T13:02:14.160Z,7214
2018-07-26T13:03:30.075Z,7094
2018-07-26T13:04:45.969Z,7350
2018-07-26T13:06:01.907Z,7372
2018-07-26T13:07:17.883Z,7003
2018-07-26T13:08:33.752Z,6648
2018-07-26T13:09:49.662Z,6516
2018-07-26T13:11:05.567Z,6577
2018-07-26T13:12:21.518Z,6736
2018-07-26T13:13:37.405Z,6862
2018-07-26T13:14:53.351Z,7034
2018-07-26T13:16:09.236Z,7439
2018-07-26T13:17:25.096Z,7754
2018-07-26T13:18:40.996Z,7916
2018-07-26T13:19:56.897Z,7889
2018-07-26T13:21:12.760Z,7655
2018-07-26T13:22:28.665Z,7380
2018-07-26T13:23:44.612Z,7052
2018-07-26T13:25:00.529Z,6669
2018-07-26T13:26:16.413Z,6365
2018-07-26T13:27:32.358Z,6618
2018-07-26T13:28:48.277Z,6620
2018-07-26T13:30:04.206Z,6660
2018-07-26T13:31:20.133Z,6686
2018-07-26T13:32:36.051Z,6831
2018-07-26T13:33:51.985Z,6922
2018-07-26T13:35:07.883Z,7050
2018-07-26T13:36:23.776Z,7183
2018-07-26T13:37:39.724Z,7376
2018-07-26T13:38:55.649Z,7393
2018-07-26T13:40:11.549Z,7380
2018-07-26T13:41:27.455Z,7365
2018-07-26T13:42:43.367Z,7296
2018-07-26T13:43:59.381Z,7258
2018-07-26T13:45:15.283Z,7277
2018-07-26T13:46:31.278Z,7048
2018-07-26T13:47:47.153Z,5558
2018-07-26T13:49:03.115Z,6713
2018-07-26T13:50:19.037Z,6595
2018-07-26T13:51:34.966Z,6734
2018-07-26T13:52:50.884Z,6796
2018-07-26T13:54:06.831Z,6907
2018-07-26T13:55:22.729Z,7076
2018-07-26T13:56:38.670Z,5796
2018-07-26T13:57:54.553Z,7116
2018-07-26T13:59:10.512Z,7110
2018-07-26T14:00:26.409Z,7051
2018-07-26T14:01:42.307Z,6841
2018-07-26T14:02:58.244Z,6738
2018-07-26T14:04:14.182Z,6764
2018-07-26T14:05:30.088Z,6652
2018-07-26T14:06:46.023Z,6658
2018-07-26T14:08:02.004Z,5819
2018-07-26T14:09:17.957Z,5575
2018-07-26T14:10:33.856Z,6488
2018-07-26T14:11:49.882Z,6584
2018-07-26T14:13:05.761Z,6868
2018-07-26T14:14:21.707Z,7066
2018-07-26T14:15:37.642Z,7028
2018-07-26T14:16:53.494Z,6975
2018-07-26T14:18:09.427Z,6905
2018-07-26T14:19:25.382Z,6755
2018-07-26T14:20:41.347Z,6665
2018-07-26T14:21:58.279Z,6584
2018-07-26T14:23:14.170Z,6519
2018-07-26T14:24:30.140Z,6467
2018-07-26T14:25:46.042Z,6458
2018-07-26T14:27:02.014Z,6475
2018-07-26T14:28:17.894Z,6423
2018-07-26T14:29:33.873Z,6383
2018-07-26T14:30:49.755Z,6416
2018-07-26T14:32:05.639Z,6451
2018-07-26T14:33:21.513Z,6443
2018-07-26T14:34:37.398Z,6445
2018-07-26T14:35:53.307Z,6385
2018-07-26T14:37:09.286Z,6354
2018-07-26T14:38:25.180Z,6357
2018-07-26T14:39:41.096Z,6307
2018-07-26T14:40:56.949Z,6277
2018-07-26T14:42:12.902Z,6226
2018-07-26T14:43:28.789Z,6186
2018-07-26T14:44:44.736Z,6168
2018-07-26T14:46:00.634Z,6163
2018-07-26T14:47:16.557Z,6148
2018-07-26T14:48:32.492Z,6108
2018-07-26T14:49:48.550Z,6079
2018-07-26T14:51:04.497Z,6075
2018-07-26T14:52:20.550Z,6050
2018-07-26T14:53:36.464Z,6003
2018-07-26T14:54:52.366Z,5995
2018-07-26T14:56:08.309Z,5963
2018-07-26T14:57:24.226Z,5980
2018-07-26T14:58:40.279Z,5949
2018-07-26T14:59:57.128Z,5928
2018-07-26T15:01:13.091Z,5971
2018-07-26T15:02:29.011Z,5989
2018-07-26T15:03:44.971Z,5940
2018-07-26T15:05:00.929Z,5952
2018-07-26T15:06:16.942Z,5968
2018-07-26T15:07:32.790Z,5946
2018-07-26T15:08:48.765Z,5938
2018-07-26T15:10:04.665Z,5939
2018-07-26T15:11:20.541Z,5881
2018-07-26T15:12:36.496Z,5081
2018-07-26T15:13:52.445Z,6030
2018-07-26T15:15:08.347Z,5996
2018-07-26T15:16:24.265Z,6052
2018-07-26T15:17:40.192Z,6074
2018-07-26T15:18:56.116Z,6110
2018-07-26T15:20:12.062Z,6033
2018-07-26T15:21:27.979Z,6004
2018-07-26T15:22:43.957Z,5970
2018-07-26T15:23:59.903Z,5886
2018-07-26T15:25:15.848Z,5877
2018-07-26T15:26:31.797Z,5872
2018-07-26T15:27:47.776Z,5864
2018-07-26T15:29:03.784Z,5862
2018-07-26T15:30:19.745Z,5901
2018-07-26T15:31:35.710Z,5925
2018-07-26T15:32:51.665Z,5930
2018-07-26T15:34:07.569Z,5916
2018-07-26T15:35:23.558Z,5960
2018-07-26T15:36:39.551Z,5886
2018-07-26T15:37:55.547Z,5825
2018-07-26T15:39:11.488Z,5858
2018-07-26T15:40:27.381Z,5990
2018-07-26T15:41:43.376Z,6177
2018-07-26T15:42:59.339Z,6323
2018-07-26T15:44:15.397Z,6339
2018-07-26T15:45:31.463Z,6197
2018-07-26T15:46:47.492Z,5981
2018-07-26T15:48:03.484Z,5825
2018-07-26T15:49:19.387Z,5680
2018-07-26T15:50:35.310Z,5602
2018-07-26T15:51:51.329Z,5606
2018-07-26T15:53:07.323Z,5564
2018-07-26T15:54:23.232Z,5565
2018-07-26T15:55:39.861Z,5596
2018-07-26T15:56:56.806Z,5625
2018-07-26T15:58:13.375Z,5620
2018-07-26T15:59:29.685Z,5629
2018-07-26T16:02:26.485Z,5547
2018-07-26T16:03:42.423Z,5281
2018-07-26T16:04:58.353Z,5165
2018-07-26T16:06:14.290Z,5098
2018-07-26T16:07:30.237Z,5105
2018-07-26T16:08:46.170Z,5081
2018-07-26T16:10:02.143Z,5149
2018-07-26T16:11:18.155Z,5229
2018-07-26T16:15:30.879Z,5335
2018-07-26T16:16:46.867Z,5220
2018-07-26T16:18:03.002Z,5101
2018-07-26T16:19:18.890Z,5065
2018-07-26T16:20:34.843Z,5038
2018-07-26T16:21:50.781Z,5080
2018-07-26T16:23:06.719Z,5028
2018-07-26T16:24:22.641Z,5073
2018-07-26T16:25:38.606Z,5106
2018-07-26T16:26:54.699Z,5085
2018-07-26T16:28:10.772Z,4943
2018-07-26T16:29:26.667Z,4748
2018-07-26T16:30:42.639Z,4644
2018-07-26T16:31:59.608Z,4597
2018-07-26T16:33:15.592Z,4530
2018-07-26T16:34:31.530Z,4542
2018-07-26T16:35:47.474Z,4621
2018-07-26T16:37:03.400Z,4732
2018-07-26T16:38:19.356Z,4797
2018-07-26T16:39:35.438Z,4781
2018-07-26T16:40:52.218Z,4705
2018-07-26T16:42:08.915Z,4646
2018-07-26T16:43:25.416Z,4584
2018-07-26T16:44:41.458Z,4556
2018-07-26T16:45:57.421Z,3647
2018-07-26T16:47:13.345Z,4010
2018-07-26T16:48:29.298Z,4388
2018-07-26T16:49:45.248Z,4302
2018-07-26T16:51:01.220Z,4231
2018-07-26T16:52:17.373Z,4112
2018-07-26T16:55:14.844Z,3915
2018-07-26T16:56:30.807Z,3871
2018-07-26T16:57:46.735Z,3825
2018-07-26T16:59:02.710Z,3795
2018-07-26T17:00:18.665Z,3775
2018-07-26T17:01:34.620Z,3769
2018-07-26T17:02:50.588Z,3754
2018-07-26T17:04:06.502Z,3705
2018-07-26T17:05:22.531Z,3677
2018-07-26T17:06:38.435Z,3668
2018-07-26T17:07:54.484Z,3644
2018-07-26T17:09:10.432Z,3593
2018-07-26T17:10:26.362Z,3515
2018-07-26T17:11:42.328Z,3442
2018-07-26T17:12:58.235Z,3390
2018-07-26T17:14:14.225Z,3354
2018-07-26T17:15:30.219Z,3316
2018-07-26T17:16:46.147Z,3287
2018-07-26T17:18:02.144Z,3237
2018-07-26T17:19:18.124Z,3198
2018-07-26T17:20:34.054Z,3167
2018-07-26T17:21:50.155Z,3137
2018-07-26T17:23:06.384Z,3119
2018-07-26T17:24:22.647Z,3130
2018-07-26T17:25:38.635Z,3089
2018-07-26T17:26:54.610Z,3071
2018-07-26T17:28:10.609Z,3040
2018-07-26T17:29:26.514Z,3010
2018-07-26T17:30:43.453Z,2973
2018-07-26T17:31:59.421Z,2932
2018-07-26T17:33:15.414Z,2892